CDT,Max TemperatureF,Mean TemperatureF,Min TemperatureF,Max Dew PointF,MeanDew PointF,Min DewpointF,Max Humidity, Mean Humidity, Min Humidity, Max Sea Level PressureIn, Mean Sea Level PressureIn, Min Sea Level PressureIn, Max VisibilityMiles, Mean VisibilityMiles, Min VisibilityMiles, Max Wind SpeedMPH, Mean Wind SpeedMPH, Max Gust SpeedMPH,PrecipitationIn, CloudCover, Events, WindDirDegrees
2011-10-1,77,59,41,37,35,32,81,46,19,30.29,30.23,30.17,10,3,0,13,3,17,0.00,0,,168
2011-10-2,80,62,44,39,38,34,76,46,23,30.22,30.17,30.10,10,7,2,16,9,20,0.00,0,,172
2011-10-3,84,65,46,46,41,37,76,45,23,30.14,30.11,30.06,10,10,10,20,9,25,0.00,0,,152
2011-10-4,91,74,57,46,45,43,63,41,18,30.10,30.05,30.01,10,10,3,20,11,26,0.00,0,,171
2011-10-5,84,70,55,46,42,39,63,40,20,30.06,30.00,29.92,10,10,5,23,11,33,0.00,0,,168
2011-10-6,80,68,57,55,46,41,77,46,32,29.94,29.86,29.77,10,10,4,31,16,44,0.07,1,Rain,157
2011-10-7,82,74,66,63,55,46,65,53,43,29.93,29.85,29.80,10,10,10,31,22,40,0.00,4,,176
2011-10-8,75,68,62,61,57,54,88,69,47,30.10,30.01,29.91,10,10,9,20,11,28,0.01,7,Rain,156
2011-10-9,71,65,57,63,59,57,100,88,64,30.12,30.08,30.00,10,9,1,16,7,22,0.21,6,Rain,142
2011-10-10,71,60,50,54,51,46,100,80,41,30.07,30.01,29.92,10,10,8,12,5,17,0.03,3,Rain,201
2011-10-11,77,64,50,59,54,50,100,77,44,29.94,29.84,29.71,10,10,6,18,9,24,0.00,2,Thunderstorm,181
2011-10-12,71,62,53,57,53,45,100,78,41,29.87,29.76,29.70,10,8,0,26,9,32,0.19,3,Fog-Rain-Thunderstorm,328
2011-10-13,73,58,44,43,37,32,81,51,22,29.94,29.88,29.82,10,10,10,23,14,30,0.00,0,,302
2011-10-14,64,53,42,39,34,25,76,50,26,30.06,30.00,29.90,10,10,10,21,11,31,0.00,2,,317
2011-10-15,77,54,32,45,36,30,93,58,25,30.08,29.97,29.76,10,10,9,22,8,30,0.00,0,,227
2011-10-16,62,53,44,46,38,32,81,58,32,30.13,30.01,29.73,10,10,7,18,9,25,0.00,0,,347
2011-10-17,50,44,39,43,39,32,93,78,62,30.12,30.05,29.99,10,10,8,17,5,25,0.00,6,Rain,7
2011-10-18,55,45,35,39,31,25,93,62,33,30.15,30.10,30.04,10,10,10,25,13,37,0.00,0,,330
2011-10-19,50,39,28,28,24,16,93,57,29,30.17,30.12,30.08,10,10,10,20,10,29,0.00,0,,349
2011-10-20,53,38,23,32,26,21,93,67,35,30.12,30.07,30.03,10,10,9,8,5,,0.00,0,,323
2011-10-21,75,54,32,39,32,27,87,55,24,30.10,30.06,30.03,10,8,3,8,6,,0.00,0,,244
2011-10-22,59,50,41,45,40,36,81,65,51,30.12,30.09,30.05,10,10,9,15,5,20,0.00,4,Rain,88
2011-10-23,77,55,33,45,38,32,100,63,21,30.03,29.97,29.91,10,10,7,18,6,25,0.00,0,,273
2011-10-24,82,60,37,45,37,32,81,48,21,30.11,29.97,29.77,10,10,2,21,7,25,0.00,0,,188
2011-10-25,66,58,50,45,42,39,71,54,42,29.96,29.77,29.67,10,10,9,24,13,32,0.00,0,,275
2011-10-26,48,44,41,41,36,32,87,71,54,30.17,30.12,30.07,10,10,10,18,10,24,0.00,6,Rain,348
2011-10-27,55,40,24,32,25,18,93,60,23,30.19,30.14,30.10,10,10,9,13,8,16,0.00,1,,280
2011-10-28,57,42,26,30,24,19,86,54,27,30.25,30.19,30.14,10,10,8,15,8,21,0.00,2,,303
2011-10-29,68,48,28,36,27,21,80,51,24,30.16,29.98,29.77,10,10,3,20,8,25,0.00,0,,195
2011-10-30,60,48,32,36,25,14,81,44,17,30.08,30.02,29.85,10,10,10,28,13,32,0.00,1,,314
2011-10-31,71,48,26,32,25,18,86,45,20,30.10,29.99,29.87,10,10,10,18,7,23,0.00,0,,199